Cameron, New York
Current Conditions -  °F | °C
As of 1:53 PM on Saturday 25 Oct 2014 (Local Time) from KELM Reporting Station
Few Clouds Few Clouds  
Wind Chill: 67°   Ceiling: Unl
Heat Index: 67°   Visibility: 10mi
Dew Point: 44°   Wind: 20mph
Humidity: 44%   Direction: 250°WSW
Pressure: 29.67"   Gusts: 24mph
Location:  42.2°N, 77.41°W
Report Text: KELM 251753Z 25017G21KT 10SM FEW100 19/07 A2967 RMK AO2 SLP047 T01940067 10194 20061 58047
Loading
Personal Weather Stations






























Interactive Weather Map
Tropical Storm Tracking
New forecast layout! Learn more

10-Day Weather Forecast

Advertisements
Track Severe Weather on mobile